Time;durP1;ratioP1;P1;durP2;ratioP2;P2;SDS_P1;SDS_P2;PMS_P1;PMS_P2;Temp;Humidity;BMP_temperature;BMP_pressure;BME280_temperature;BME280_humidity;BME280_pressure;Samples;Min_cycle;Max_cycle;Signal;HPM_P1;HPM_P2
2023/07/30 00:01:29;;;;;;;5.60;5.20;;;17.70;99.90;;;;;;5088118;29;20199;-46
2023/07/30 00:04:00;;;;;;;6.10;5.60;;;17.60;99.90;;;;;;5084806;29;20531;-45
2023/07/30 00:06:30;;;;;;;11.60;6.80;;;17.60;99.90;;;;;;5091713;29;20691;-46
2023/07/30 00:09:01;;;;;;;5.73;4.77;;;17.50;99.90;;;;;;5092975;29;20206;-45
2023/07/30 00:11:32;;;;;;;5.27;4.80;;;17.50;99.90;;;;;;5096776;29;20198;-44
2023/07/30 00:14:02;;;;;;;9.17;5.20;;;17.50;99.90;;;;;;5094418;29;20198;-45
2023/07/30 00:16:33;;;;;;;4.80;4.50;;;17.50;99.90;;;;;;5086924;29;20242;-45
2023/07/30 00:19:03;;;;;;;3.97;3.77;;;17.40;99.90;;;;;;5086901;29;20734;-44
2023/07/30 00:21:34;;;;;;;10.63;4.73;;;17.40;99.90;;;;;;5096093;29;20247;-44
2023/07/30 00:24:05;;;;;;;3.83;3.63;;;17.40;99.90;;;;;;5091098;29;20222;-45
2023/07/30 00:26:35;;;;;;;4.27;3.87;;;17.40;99.90;;;;;;5106435;28;20212;-47
2023/07/30 00:29:06;;;;;;;4.20;3.93;;;17.40;99.90;;;;;;5092736;29;20183;-45
2023/07/30 00:31:36;;;;;;;3.83;3.53;;;17.40;99.90;;;;;;5091245;29;20202;-44
2023/07/30 00:34:07;;;;;;;3.70;3.50;;;17.30;99.90;;;;;;5093040;29;20663;-45
2023/07/30 00:36:38;;;;;;;6.43;5.73;;;17.30;99.90;;;;;;5090654;29;20210;-45
2023/07/30 00:39:11;;;;;;;4.63;4.23;;;17.30;99.90;;;;;;5105585;28;20211;-45
2023/07/30 00:41:41;;;;;;;3.87;3.70;;;17.30;99.90;;;;;;5102556;28;20591;-45
2023/07/30 00:44:12;;;;;;;4.13;3.90;;;17.30;99.90;;;;;;5094449;29;20444;-47
2023/07/30 00:46:43;;;;;;;3.93;3.30;;;17.30;99.90;;;;;;5092469;29;20691;-45
2023/07/30 00:49:13;;;;;;;4.37;4.07;;;17.30;99.90;;;;;;5089977;29;20197;-45
2023/07/30 00:51:44;;;;;;;4.07;3.87;;;17.20;99.90;;;;;;5091686;29;20219;-44
2023/07/30 00:54:14;;;;;;;4.00;3.70;;;17.20;99.90;;;;;;5089714;29;20191;-46
2023/07/30 00:56:52;;;;;;;4.50;3.07;;;17.20;99.90;;;;;;5093015;29;20209;-44
2023/07/30 00:59:23;;;;;;;3.47;3.27;;;17.20;99.90;;;;;;5108548;28;20217;-45
2023/07/30 01:01:57;;;;;;;2.93;2.73;;;17.20;99.90;;;;;;5086672;29;20474;-46
2023/07/30 01:04:29;;;;;;;3.47;3.20;;;17.10;99.90;;;;;;5105088;29;20442;-45
2023/07/30 01:07:00;;;;;;;3.23;3.07;;;17.10;99.90;;;;;;5090081;29;20465;-45
2023/07/30 01:09:31;;;;;;;3.53;3.40;;;17.00;99.90;;;;;;5089099;29;20435;-44
2023/07/30 01:12:04;;;;;;;3.33;3.23;;;17.10;99.90;;;;;;5100498;29;20191;-45
2023/07/30 01:14:37;;;;;;;3.53;3.03;;;17.10;99.90;;;;;;5099825;29;20816;-45
2023/07/30 01:17:09;;;;;;;2.87;2.77;;;17.10;99.90;;;;;;5101396;29;20855;-44
2023/07/30 01:19:39;;;;;;;7.80;3.27;;;17.10;99.90;;;;;;5087601;29;20473;-44
2023/07/30 01:22:10;;;;;;;3.80;3.60;;;17.00;99.90;;;;;;5104175;29;20434;-45
2023/07/30 01:24:40;;;;;;;4.33;3.90;;;17.00;99.90;;;;;;5104794;29;20257;-45
2023/07/30 01:27:18;;;;;;;3.47;3.37;;;17.00;99.90;;;;;;5102648;29;20207;-46
2023/07/30 01:29:56;;;;;;;4.20;3.10;;;16.90;99.90;;;;;;5107775;29;20686;-44
2023/07/30 01:32:28;;;;;;;3.77;3.50;;;16.90;99.90;;;;;;5115741;28;20557;-44
2023/07/30 01:35:00;;;;;;;5.50;3.87;;;16.90;99.90;;;;;;5105303;29;20557;-45
2023/07/30 01:37:31;;;;;;;3.73;3.30;;;16.90;99.90;;;;;;5103467;29;20867;-44
2023/07/30 01:40:02;;;;;;;3.33;3.03;;;16.90;99.90;;;;;;5100440;29;20553;-44
2023/07/30 01:42:33;;;;;;;3.13;3.03;;;16.80;99.90;;;;;;5110870;28;20180;-49
2023/07/30 01:45:05;;;;;;;13.00;3.80;;;16.80;99.90;;;;;;5104813;29;20872;-45
2023/07/30 01:47:35;;;;;;;3.60;3.40;;;16.80;99.90;;;;;;5101381;28;20572;-45
2023/07/30 01:50:06;;;;;;;2.77;2.63;;;16.80;99.90;;;;;;5101088;29;20442;-45
2023/07/30 01:52:37;;;;;;;2.93;2.83;;;16.80;99.90;;;;;;5105089;29;20179;-45
2023/07/30 01:55:08;;;;;;;2.70;2.60;;;16.80;99.90;;;;;;5101948;29;20187;-44
2023/07/30 01:57:39;;;;;;;3.40;3.20;;;16.70;99.90;;;;;;5103441;29;20511;-44
2023/07/30 02:00:10;;;;;;;3.67;3.53;;;16.70;99.90;;;;;;5097219;29;20534;-45
2023/07/30 02:02:40;;;;;;;3.50;3.30;;;16.70;99.90;;;;;;5100909;29;20179;-44
2023/07/30 02:05:11;;;;;;;4.20;3.80;;;16.60;99.90;;;;;;5084018;29;20438;-45
2023/07/30 02:07:42;;;;;;;3.87;3.67;;;16.60;99.90;;;;;;5100538;29;20216;-46
2023/07/30 02:10:13;;;;;;;3.93;3.50;;;16.50;99.90;;;;;;5101381;29;20187;-44
2023/07/30 02:12:43;;;;;;;3.60;3.40;;;16.50;99.90;;;;;;5107088;29;20190;-45
2023/07/30 02:15:14;;;;;;;5.10;4.17;;;16.40;99.90;;;;;;5111745;29;20454;-44
2023/07/30 02:17:44;;;;;;;5.37;4.47;;;16.40;99.90;;;;;;5140384;23;20312;-48
2023/07/30 02:20:15;;;;;;;4.97;4.57;;;16.40;99.90;;;;;;5156547;28;20212;-49
2023/07/30 02:22:46;;;;;;;9.70;4.07;;;16.40;99.90;;;;;;5144338;28;20174;-47
2023/07/30 02:25:18;;;;;;;5.83;4.53;;;16.30;99.90;;;;;;5146024;28;20292;-48
2023/07/30 02:27:48;;;;;;;4.20;4.00;;;16.30;99.90;;;;;;5145511;28;20225;-48
2023/07/30 02:30:19;;;;;;;3.03;2.93;;;16.20;99.90;;;;;;5142178;28;20903;-47
2023/07/30 02:32:49;;;;;;;4.07;3.87;;;16.20;99.90;;;;;;5147228;28;20193;-48
2023/07/30 02:35:20;;;;;;;4.83;4.43;;;16.20;99.90;;;;;;5148176;28;20186;-47
2023/07/30 02:37:50;;;;;;;4.40;4.10;;;16.20;99.90;;;;;;5145076;28;20615;-48
2023/07/30 02:40:21;;;;;;;6.90;4.37;;;16.20;99.90;;;;;;5143742;28;20205;-48
2023/07/30 02:42:52;;;;;;;8.10;5.80;;;16.20;99.90;;;;;;5144366;28;20606;-46
2023/07/30 02:45:22;;;;;;;5.10;4.63;;;16.20;99.90;;;;;;5146456;28;20193;-48
2023/07/30 02:47:53;;;;;;;5.20;4.77;;;16.20;99.90;;;;;;5138764;28;20634;-48
2023/07/30 02:50:23;;;;;;;4.23;4.03;;;16.20;99.90;;;;;;5144926;28;20268;-47
2023/07/30 02:52:54;;;;;;;5.07;4.77;;;16.20;99.90;;;;;;5143728;28;20198;-49
2023/07/30 02:55:25;;;;;;;7.10;4.00;;;16.20;99.90;;;;;;5143578;28;20350;-47
2023/07/30 02:57:55;;;;;;;5.70;4.57;;;16.20;99.90;;;;;;5144223;28;20732;-47
2023/07/30 03:00:26;;;;;;;4.23;3.83;;;16.20;99.90;;;;;;5147047;28;20213;-47
2023/07/30 03:02:57;;;;;;;4.97;4.57;;;16.20;99.90;;;;;;5141102;28;20190;-48
2023/07/30 03:05:27;;;;;;;4.70;4.40;;;16.10;99.90;;;;;;5142358;28;20190;-47
2023/07/30 03:07:58;;;;;;;4.63;4.33;;;16.10;99.90;;;;;;5136941;28;20214;-48
2023/07/30 03:10:28;;;;;;;5.10;4.70;;;16.10;99.90;;;;;;5149174;28;20252;-48
2023/07/30 03:12:59;;;;;;;3.57;3.27;;;16.00;99.90;;;;;;5148256;28;20527;-48
2023/07/30 03:15:30;;;;;;;4.60;4.27;;;16.10;99.90;;;;;;5142654;28;20190;-48
2023/07/30 03:18:00;;;;;;;4.60;4.20;;;16.10;99.90;;;;;;5145495;28;20228;-48
2023/07/30 03:20:31;;;;;;;4.73;4.40;;;16.20;99.90;;;;;;5141640;28;20510;-47
2023/07/30 03:23:02;;;;;;;3.60;3.50;;;16.20;99.90;;;;;;5145904;28;20444;-48
2023/07/30 03:25:32;;;;;;;3.70;3.60;;;16.20;99.90;;;;;;5148661;28;20189;-48
2023/07/30 03:28:03;;;;;;;4.10;3.90;;;16.20;99.90;;;;;;5141353;28;20198;-47
2023/07/30 03:30:34;;;;;;;3.60;3.40;;;16.20;99.90;;;;;;5146282;28;20617;-47
2023/07/30 03:33:05;;;;;;;3.63;3.47;;;16.30;99.90;;;;;;5142519;28;20281;-47
2023/07/30 03:35:36;;;;;;;4.23;3.80;;;16.30;99.90;;;;;;5141616;28;20617;-48
2023/07/30 03:38:06;;;;;;;4.20;3.30;;;16.30;99.90;;;;;;5141924;28;20209;-48
2023/07/30 03:40:37;;;;;;;4.00;3.27;;;16.30;99.90;;;;;;5136084;28;20245;-48
2023/07/30 03:43:08;;;;;;;4.67;3.00;;;16.30;99.90;;;;;;5139215;28;20216;-49
2023/07/30 03:45:38;;;;;;;4.13;3.80;;;16.30;99.90;;;;;;5138080;28;20250;-48
2023/07/30 03:48:09;;;;;;;3.17;3.07;;;16.40;99.90;;;;;;5139401;28;20221;-47
2023/07/30 03:50:39;;;;;;;3.63;3.53;;;16.40;99.90;;;;;;5140568;28;20186;-48
2023/07/30 03:53:11;;;;;;;3.33;3.17;;;16.40;99.90;;;;;;5139953;28;20255;-48
2023/07/30 03:55:42;;;;;;;3.30;3.20;;;16.40;99.90;;;;;;5154059;28;20262;-47
2023/07/30 03:58:12;;;;;;;4.00;3.70;;;16.50;99.90;;;;;;5142654;28;20469;-47
2023/07/30 04:00:43;;;;;;;4.07;3.87;;;16.50;99.90;;;;;;5138547;28;21678;-48
2023/07/30 04:03:14;;;;;;;3.80;3.60;;;16.50;99.90;;;;;;5140086;28;20198;-46
2023/07/30 04:05:44;;;;;;;4.00;3.70;;;16.60;99.90;;;;;;5138039;28;20778;-48
2023/07/30 04:08:16;;;;;;;4.60;4.17;;;16.70;99.90;;;;;;5131887;28;20205;-47
2023/07/30 04:10:47;;;;;;;6.00;3.90;;;16.70;99.90;;;;;;5139247;28;20236;-46
2023/07/30 04:13:17;;;;;;;5.53;3.70;;;16.80;99.90;;;;;;5137262;28;20445;-47
2023/07/30 04:15:48;;;;;;;3.77;3.23;;;16.90;99.90;;;;;;5133797;28;20186;-48
2023/07/30 04:18:19;;;;;;;3.07;2.97;;;17.20;99.90;;;;;;5139339;28;20229;-51
2023/07/30 04:20:50;;;;;;;3.87;3.57;;;17.30;99.90;;;;;;5141002;28;20833;-48
2023/07/30 04:23:20;;;;;;;3.83;3.63;;;17.30;99.90;;;;;;5140322;28;20592;-48
2023/07/30 04:25:51;;;;;;;4.43;3.77;;;17.50;99.90;;;;;;5132998;28;20217;-48
2023/07/30 04:28:22;;;;;;;3.63;3.33;;;17.70;99.90;;;;;;5137955;28;20621;-48
2023/07/30 04:30:52;;;;;;;7.10;4.07;;;17.90;99.90;;;;;;5138290;28;20516;-48
2023/07/30 04:33:23;;;;;;;3.70;3.50;;;18.10;99.90;;;;;;5137621;28;20256;-47
2023/07/30 04:35:54;;;;;;;5.07;4.20;;;18.20;99.90;;;;;;5139094;28;20184;-49
2023/07/30 04:38:24;;;;;;;3.57;3.37;;;18.10;99.90;;;;;;5129602;28;20233;-48
2023/07/30 04:40:58;;;;;;;3.40;3.13;;;18.10;99.90;;;;;;5139310;28;20218;-47
2023/07/30 04:43:28;;;;;;;4.73;3.50;;;18.10;99.90;;;;;;5140731;28;20277;-47
2023/07/30 04:45:59;;;;;;;4.17;3.93;;;18.30;99.90;;;;;;5135829;28;20520;-48
2023/07/30 04:48:30;;;;;;;3.00;2.90;;;18.40;99.90;;;;;;5137467;28;20185;-48
2023/07/30 04:51:00;;;;;;;4.60;4.30;;;18.30;99.90;;;;;;5137574;28;20915;-48
2023/07/30 04:53:31;;;;;;;3.90;3.70;;;18.30;99.90;;;;;;5134838;28;20276;-48
2023/07/30 04:56:01;;;;;;;4.27;4.00;;;18.30;99.90;;;;;;5135420;28;20244;-47
2023/07/30 04:58:32;;;;;;;3.60;3.40;;;18.30;99.90;;;;;;5137104;28;20216;-48
2023/07/30 05:01:03;;;;;;;3.50;3.30;;;18.50;99.90;;;;;;5136726;28;20252;-47
2023/07/30 05:03:33;;;;;;;3.20;3.00;;;18.90;99.90;;;;;;5141089;28;20201;-48
2023/07/30 05:06:04;;;;;;;3.47;3.27;;;19.40;99.90;;;;;;5138821;28;20705;-47
2023/07/30 05:08:34;;;;;;;4.00;3.70;;;20.20;99.90;;;;;;5134064;28;20273;-47
2023/07/30 05:11:05;;;;;;;3.80;2.53;;;21.30;99.90;;;;;;5133437;28;20292;-48
2023/07/30 05:13:36;;;;;;;3.10;2.90;;;22.60;99.90;;;;;;5136004;28;20646;-49
2023/07/30 05:16:06;;;;;;;3.20;3.10;;;24.00;99.90;;;;;;5139958;28;20198;-49
2023/07/30 05:18:37;;;;;;;2.43;2.30;;;25.50;99.90;;;;;;5137380;28;20584;-47
2023/07/30 05:21:08;;;;;;;3.47;2.90;;;26.80;99.90;;;;;;5133150;28;20245;-49
2023/07/30 05:23:38;;;;;;;3.07;2.73;;;28.00;99.80;;;;;;5133208;28;20750;-48
2023/07/30 05:26:09;;;;;;;2.37;2.27;;;28.80;93.90;;;;;;5131023;28;20551;-48
2023/07/30 05:28:39;;;;;;;2.53;2.30;;;29.50;90.00;;;;;;5132668;28;20181;-49
2023/07/30 05:31:10;;;;;;;2.50;2.40;;;30.00;82.50;;;;;;5141556;28;20652;-51
2023/07/30 05:33:40;;;;;;;2.50;2.40;;;30.70;74.00;;;;;;5138037;28;20188;-48
2023/07/30 05:36:11;;;;;;;2.70;2.50;;;31.00;69.10;;;;;;5143541;28;20189;-48
2023/07/30 05:38:42;;;;;;;2.03;1.90;;;32.10;65.00;;;;;;5136563;28;20189;-49
2023/07/30 05:41:12;;;;;;;1.90;1.80;;;32.30;59.70;;;;;;5135148;28;20217;-49
2023/07/30 05:43:43;;;;;;;14.13;2.13;;;30.60;60.30;;;;;;5141085;28;21327;-49
2023/07/30 05:46:13;;;;;;;1.77;1.70;;;28.70;65.00;;;;;;5128582;28;22100;-49
2023/07/30 05:48:44;;;;;;;1.80;1.80;;;27.00;69.90;;;;;;5127722;28;20198;-49
2023/07/30 05:51:15;;;;;;;2.10;2.10;;;25.70;75.30;;;;;;5131709;28;20182;-47
2023/07/30 05:53:45;;;;;;;2.23;2.13;;;24.80;81.10;;;;;;5131746;28;20204;-49
2023/07/30 05:56:18;;;;;;;2.23;2.13;;;24.00;86.70;;;;;;5135803;28;20628;-48
2023/07/30 05:58:48;;;;;;;2.40;2.30;;;23.50;91.80;;;;;;5153010;28;20561;-47
2023/07/30 06:01:19;;;;;;;2.57;1.97;;;23.40;94.70;;;;;;5134086;28;20499;-50
2023/07/30 06:03:50;;;;;;;2.30;2.10;;;23.30;96.10;;;;;;5134812;28;20253;-47
2023/07/30 06:06:26;;;;;;;2.50;2.40;;;23.30;97.00;;;;;;5141683;28;20219;-49
2023/07/30 06:08:57;;;;;;;3.20;1.80;;;23.80;98.00;;;;;;5136556;28;20190;-49
2023/07/30 06:11:28;;;;;;;2.03;1.83;;;25.20;96.30;;;;;;5137135;28;20455;-48
2023/07/30 06:13:58;;;;;;;1.80;1.70;;;27.00;92.30;;;;;;5141709;28;20182;-48
2023/07/30 06:16:29;;;;;;;1.80;1.70;;;28.70;79.90;;;;;;5138576;28;20216;-49
2023/07/30 06:19:00;;;;;;;1.40;1.40;;;30.50;72.70;;;;;;5140047;28;20185;-48
2023/07/30 06:21:30;;;;;;;1.70;1.60;;;31.80;62.50;;;;;;5142080;28;20177;-49
2023/07/30 06:24:01;;;;;;;1.70;1.67;;;32.40;58.30;;;;;;5136994;28;20189;-48
2023/07/30 06:26:32;;;;;;;10.40;1.17;;;33.10;55.60;;;;;;5130798;28;20344;-49
2023/07/30 06:29:03;;;;;;;1.57;1.47;;;34.00;53.10;;;;;;5136423;28;20185;-49
2023/07/30 06:31:33;;;;;;;1.53;1.40;;;35.10;49.70;;;;;;5134344;28;20235;-50
2023/07/30 06:34:04;;;;;;;1.70;1.70;;;34.30;48.80;;;;;;5135787;28;20186;-49
2023/07/30 06:36:35;;;;;;;1.63;1.53;;;32.00;51.60;;;;;;5134718;28;20204;-49
2023/07/30 06:39:06;;;;;;;1.53;1.43;;;30.00;55.40;;;;;;5136488;28;20182;-49
2023/07/30 06:41:36;;;;;;;1.63;1.63;;;29.30;58.10;;;;;;5139803;28;20185;-47
2023/07/30 06:44:07;;;;;;;1.67;1.67;;;30.60;57.00;;;;;;5136593;28;20288;-50
2023/07/30 06:46:37;;;;;;;1.60;1.60;;;31.00;55.40;;;;;;5142035;28;20221;-48
2023/07/30 06:49:08;;;;;;;1.60;1.60;;;30.70;55.10;;;;;;5134928;28;20223;-48
2023/07/30 06:51:39;;;;;;;2.83;1.53;;;29.50;57.10;;;;;;5133676;28;20190;-49
2023/07/30 06:54:09;;;;;;;1.07;1.07;;;28.10;60.20;;;;;;5141338;28;20194;-49
2023/07/30 06:56:40;;;;;;;1.57;1.47;;;26.80;63.80;;;;;;5141934;28;20237;-47
2023/07/30 06:59:10;;;;;;;1.10;1.10;;;25.90;67.70;;;;;;5137621;28;20182;-48
2023/07/30 07:01:41;;;;;;;1.93;1.80;;;25.20;71.00;;;;;;5137582;28;20185;-47
2023/07/30 07:04:12;;;;;;;3.43;1.23;;;24.90;73.80;;;;;;5142108;28;20565;-48
2023/07/30 07:06:42;;;;;;;1.67;1.60;;;24.90;76.40;;;;;;5139379;28;20202;-48
2023/07/30 07:09:13;;;;;;;1.67;1.67;;;26.40;74.70;;;;;;5142611;28;20666;-48
2023/07/30 07:11:43;;;;;;;1.67;1.67;;;28.90;66.70;;;;;;5137176;28;20280;-48
2023/07/30 07:14:14;;;;;;;1.30;1.30;;;30.50;60.80;;;;;;5140487;28;20193;-48
2023/07/30 07:16:45;;;;;;;1.63;1.47;;;32.40;56.00;;;;;;5145340;28;20240;-48
2023/07/30 07:19:15;;;;;;;1.70;1.60;;;32.30;54.30;;;;;;5143608;28;20205;-47
2023/07/30 07:21:46;;;;;;;1.97;1.87;;;31.40;55.10;;;;;;5139164;28;20197;-49
2023/07/30 07:24:16;;;;;;;5.13;1.70;;;31.40;56.00;;;;;;5137761;28;20267;-48
2023/07/30 07:26:47;;;;;;;1.27;1.27;;;33.00;53.10;;;;;;5141220;28;20197;-48
2023/07/30 07:29:18;;;;;;;1.63;1.53;;;34.60;50.50;;;;;;5138900;28;20189;-48
2023/07/30 07:31:48;;;;;;;1.67;1.58;;;36.00;47.80;;;;;;5142921;28;20272;-49
2023/07/30 07:34:19;;;;;;;1.63;1.52;;;37.10;44.50;;;;;;5140421;28;20345;-48
2023/07/30 07:36:50;;;;;;;1.70;1.60;;;38.30;42.20;;;;;;5142985;28;20287;-49
2023/07/30 07:39:21;;;;;;;1.40;1.30;;;38.60;40.60;;;;;;5143913;28;20297;-49
2023/07/30 07:41:51;;;;;;;4.32;1.30;;;38.10;40.80;;;;;;5137474;28;20273;-49
2023/07/30 07:44:22;;;;;;;2.38;2.17;;;36.60;41.80;;;;;;5138766;28;20329;-48
2023/07/30 07:46:53;;;;;;;1.30;1.30;;;33.60;45.80;;;;;;5137720;28;20645;-47
2023/07/30 07:49:23;;;;;;;2.17;2.07;;;31.20;50.40;;;;;;5138580;28;20185;-49
2023/07/30 07:51:54;;;;;;;1.57;1.57;;;31.40;51.40;;;;;;5146890;28;20189;-51
2023/07/30 07:54:24;;;;;;;1.63;1.53;;;32.10;50.30;;;;;;5141922;28;20212;-48
2023/07/30 07:56:55;;;;;;;1.80;1.70;;;31.60;50.60;;;;;;5138066;28;20301;-47
2023/07/30 07:59:27;;;;;;;2.40;2.20;;;31.50;51.90;;;;;;5142399;28;20235;-49
2023/07/30 08:01:58;;;;;;;1.80;1.80;;;32.90;49.30;;;;;;5142965;28;20539;-48
2023/07/30 08:04:28;;;;;;;1.73;1.63;;;33.80;48.50;;;;;;5130816;28;20214;-47
2023/07/30 08:07:03;;;;;;;1.97;1.87;;;35.40;45.80;;;;;;5130964;28;20256;-49
2023/07/30 08:09:33;;;;;;;2.70;1.50;;;36.40;44.40;;;;;;5129918;28;20188;-51
2023/07/30 08:12:04;;;;;;;1.83;1.50;;;36.80;42.00;;;;;;5126065;28;20200;-48
2023/07/30 08:14:35;;;;;;;2.15;2.05;;;35.90;42.70;;;;;;5131678;28;20194;-48
2023/07/30 08:17:05;;;;;;;1.50;1.50;;;35.50;44.50;;;;;;5139864;23;20229;-45
2023/07/30 08:19:36;;;;;;;1.45;1.45;;;35.20;44.40;;;;;;5134061;28;23648;-45
2023/07/30 08:22:07;;;;;;;1.85;1.75;;;33.30;47.00;;;;;;5134538;28;20693;-46
2023/07/30 08:24:37;;;;;;;3.63;1.80;;;32.60;48.90;;;;;;5147672;28;20201;-45
2023/07/30 08:27:08;;;;;;;2.23;2.13;;;31.30;50.40;;;;;;5138819;28;20209;-45
2023/07/30 08:29:39;;;;;;;1.40;1.40;;;30.00;53.40;;;;;;5137716;28;20259;-46
2023/07/30 08:32:09;;;;;;;3.17;1.80;;;29.70;53.80;;;;;;5135762;28;20197;-45
2023/07/30 08:34:40;;;;;;;1.47;1.47;;;30.10;52.80;;;;;;5137305;28;20260;-46
2023/07/30 08:37:10;;;;;;;3.87;1.87;;;29.30;54.30;;;;;;5136268;28;20233;-45
2023/07/30 08:39:41;;;;;;;1.97;1.87;;;28.20;56.20;;;;;;5134235;28;20289;-46
2023/07/30 08:42:12;;;;;;;1.53;1.53;;;27.20;58.60;;;;;;5135153;28;20192;-44
2023/07/30 08:44:42;;;;;;;4.00;1.50;;;26.60;60.60;;;;;;5131467;28;20186;-45
2023/07/30 08:47:13;;;;;;;1.80;1.70;;;27.20;58.70;;;;;;5138380;28;20285;-45
2023/07/30 08:49:43;;;;;;;2.50;2.30;;;27.40;58.10;;;;;;5135776;28;20193;-45
2023/07/30 08:52:18;;;;;;;1.70;1.60;;;26.80;58.80;;;;;;5137694;28;20201;-44
2023/07/30 08:54:49;;;;;;;2.37;2.17;;;26.10;60.00;;;;;;5134550;28;20561;-42
2023/07/30 08:57:21;;;;;;;8.03;2.43;;;25.40;61.60;;;;;;5141967;28;21104;-41
2023/07/30 09:00:00;;;;;;;2.27;2.10;;;25.10;62.80;;;;;;5134250;28;20453;-43
2023/07/30 09:02:39;;;;;;;1.80;1.70;;;24.90;61.80;;;;;;5132849;28;20429;-42
2023/07/30 09:05:10;;;;;;;8.73;2.20;;;25.00;62.30;;;;;;5133064;28;20437;-42
2023/07/30 09:07:41;;;;;;;2.00;1.90;;;25.40;62.10;;;;;;5126217;28;20512;-46
2023/07/30 09:10:12;;;;;;;2.40;2.23;;;25.80;61.50;;;;;;5132564;28;20445;-45
2023/07/30 09:12:43;;;;;;;2.37;2.20;;;26.20;59.70;;;;;;5155210;28;20449;-46
2023/07/30 09:15:14;;;;;;;3.07;1.57;;;26.00;58.70;;;;;;5138867;28;20445;-46
2023/07/30 09:17:45;;;;;;;3.80;1.50;;;26.00;59.40;;;;;;5131856;28;20225;-45
2023/07/30 09:20:17;;;;;;;1.70;1.60;;;26.10;60.00;;;;;;5133873;28;20272;-46
2023/07/30 09:22:49;;;;;;;1.67;1.67;;;26.50;59.40;;;;;;5128719;28;20541;-46
2023/07/30 09:25:20;;;;;;;3.33;1.93;;;26.90;58.00;;;;;;5131872;28;20747;-47
2023/07/30 09:27:51;;;;;;;2.00;1.90;;;26.90;56.80;;;;;;5136211;28;20461;-46
2023/07/30 09:30:23;;;;;;;2.43;2.33;;;26.90;58.00;;;;;;5140835;28;20293;-46
2023/07/30 09:32:57;;;;;;;2.17;1.93;;;26.70;57.70;;;;;;5136466;28;20256;-46
2023/07/30 09:35:27;;;;;;;2.80;2.50;;;26.20;58.40;;;;;;5134050;28;20441;-46
2023/07/30 09:37:59;;;;;;;2.93;2.30;;;25.50;59.00;;;;;;5128641;28;20468;-44
2023/07/30 09:40:35;;;;;;;4.23;2.20;;;25.10;59.70;;;;;;5138058;28;20217;-46
2023/07/30 09:43:06;;;;;;;1.43;1.43;;;24.70;60.60;;;;;;5139101;28;20449;-44
2023/07/30 09:45:37;;;;;;;3.20;2.60;;;24.40;60.70;;;;;;5138793;28;20463;-45
2023/07/30 09:48:08;;;;;;;2.00;1.80;;;24.70;60.60;;;;;;5141700;28;20206;-46
2023/07/30 09:50:38;;;;;;;2.00;1.70;;;24.70;59.70;;;;;;5138689;28;20960;-47
2023/07/30 09:53:10;;;;;;;2.50;1.80;;;24.70;60.90;;;;;;5140075;28;20196;-46
2023/07/30 09:55:41;;;;;;;7.40;2.50;;;24.70;61.00;;;;;;5136894;28;20190;-45
2023/07/30 09:58:12;;;;;;;2.97;2.60;;;24.70;59.70;;;;;;5138579;28;20476;-46
2023/07/30 10:00:45;;;;;;;1.90;1.80;;;24.50;60.50;;;;;;5130725;28;20214;-45
2023/07/30 10:03:16;;;;;;;1.60;1.50;;;24.30;61.20;;;;;;5135018;28;20441;-46
2023/07/30 10:05:47;;;;;;;1.77;1.70;;;24.50;61.80;;;;;;5141475;28;20472;-44
2023/07/30 10:08:25;;;;;;;6.37;2.53;;;24.70;61.60;;;;;;5130547;28;20659;-45
2023/07/30 10:10:57;;;;;;;2.60;2.20;;;24.80;61.80;;;;;;5134329;28;20440;-45
2023/07/30 10:13:28;;;;;;;4.00;3.27;;;24.50;62.80;;;;;;5135808;28;20440;-46
2023/07/30 10:15:59;;;;;;;3.43;3.07;;;24.30;63.20;;;;;;5130967;28;20456;-46
2023/07/30 10:18:38;;;;;;;1.80;1.80;;;24.40;63.70;;;;;;5135495;28;20494;-45
2023/07/30 10:21:10;;;;;;;2.57;2.33;;;24.50;62.30;;;;;;5141764;28;20284;-45
2023/07/30 10:23:58;;;;;;;1.63;1.60;;;24.70;61.70;;;;;;5136463;28;20878;-45
2023/07/30 10:26:35;;;;;;;1.67;1.57;;;24.90;59.30;;;;;;5141519;28;20916;-46
2023/07/30 10:29:17;;;;;;;2.20;1.87;;;25.00;59.50;;;;;;5142083;28;20472;-44
2023/07/30 10:31:54;;;;;;;2.43;2.23;;;25.00;60.00;;;;;;5129910;28;20963;-46
2023/07/30 10:34:27;;;;;;;2.90;2.63;;;25.10;59.90;;;;;;5136203;28;20508;-45
2023/07/30 10:36:59;;;;;;;3.80;2.33;;;24.90;59.30;;;;;;5135882;28;20559;-46
2023/07/30 10:39:30;;;;;;;1.53;1.43;;;24.90;58.60;;;;;;5132471;28;20456;-47
2023/07/30 10:42:01;;;;;;;1.50;1.40;;;25.00;57.40;;;;;;5135382;28;20460;-47
2023/07/30 10:44:34;;;;;;;3.20;1.53;;;25.20;56.60;;;;;;5136268;28;20276;-44
2023/07/30 10:47:04;;;;;;;1.80;1.70;;;25.40;56.70;;;;;;5133861;28;20465;-45
2023/07/30 10:49:40;;;;;;;2.93;2.57;;;25.60;57.20;;;;;;5136951;28;20441;-46
2023/07/30 10:52:11;;;;;;;3.20;2.90;;;25.60;57.50;;;;;;5136040;28;20579;-47
2023/07/30 10:54:42;;;;;;;2.60;2.43;;;25.80;57.00;;;;;;5136439;28;20466;-46
2023/07/30 10:57:14;;;;;;;4.33;2.13;;;26.00;57.30;;;;;;5149787;28;20205;-45
2023/07/30 10:59:44;;;;;;;2.30;1.67;;;26.20;56.90;;;;;;5142773;28;20473;-45
2023/07/30 11:02:15;;;;;;;5.17;2.07;;;26.40;55.30;;;;;;5135128;28;20772;-46
2023/07/30 11:04:46;;;;;;;1.70;1.70;;;26.30;54.90;;;;;;5138965;28;20328;-45
2023/07/30 11:07:19;;;;;;;2.40;2.20;;;26.40;55.80;;;;;;5137725;28;20198;-46
2023/07/30 11:10:00;;;;;;;9.50;2.10;;;26.30;54.30;;;;;;5139454;28;20249;-46
2023/07/30 11:12:32;;;;;;;6.83;2.13;;;26.50;55.00;;;;;;5140613;28;20476;-46
2023/07/30 11:15:03;;;;;;;5.43;2.33;;;26.60;54.70;;;;;;5138149;28;20456;-45
2023/07/30 11:17:34;;;;;;;2.10;2.00;;;26.70;53.40;;;;;;5139232;28;20546;-46
2023/07/30 11:20:05;;;;;;;4.00;1.70;;;26.70;53.60;;;;;;5130083;28;20488;-46
2023/07/30 11:22:36;;;;;;;1.60;1.60;;;26.70;52.50;;;;;;5131843;28;20202;-45
2023/07/30 11:25:16;;;;;;;4.83;2.60;;;26.70;51.60;;;;;;5139729;28;20519;-46
2023/07/30 11:27:48;;;;;;;2.20;1.97;;;26.80;51.70;;;;;;5139747;28;20209;-45
2023/07/30 11:30:19;;;;;;;1.87;1.77;;;26.70;51.10;;;;;;5141101;28;20441;-46
2023/07/30 11:32:50;;;;;;;1.87;1.77;;;26.70;51.40;;;;;;5133616;28;20843;-46
2023/07/30 11:35:21;;;;;;;1.73;1.63;;;26.70;50.90;;;;;;5136363;28;20189;-46
2023/07/30 11:37:51;;;;;;;4.30;1.77;;;26.70;50.90;;;;;;5132228;28;20217;-45
2023/07/30 11:40:22;;;;;;;1.77;1.67;;;27.00;51.30;;;;;;5135028;28;20745;-46
2023/07/30 11:42:53;;;;;;;2.60;2.10;;;27.10;50.60;;;;;;5135907;28;20193;-46
2023/07/30 11:45:24;;;;;;;2.60;1.83;;;27.10;49.00;;;;;;5134272;28;20189;-45
2023/07/30 11:48:08;;;;;;;1.97;1.70;;;27.00;48.90;;;;;;5137814;28;20201;-45
2023/07/30 11:50:46;;;;;;;3.03;2.13;;;26.70;49.20;;;;;;5138756;28;20276;-46
2023/07/30 11:53:18;;;;;;;2.77;2.50;;;26.70;49.10;;;;;;5133204;28;20460;-46
2023/07/30 11:55:48;;;;;;;2.53;2.30;;;26.40;48.70;;;;;;5131837;28;20444;-47
2023/07/30 11:58:19;;;;;;;6.80;1.90;;;26.20;49.90;;;;;;5132252;28;20461;-46
2023/07/30 12:00:50;;;;;;;2.30;1.77;;;26.30;50.10;;;;;;5134733;28;20220;-46
2023/07/30 12:03:20;;;;;;;2.30;1.50;;;26.20;49.60;;;;;;5136380;28;20197;-46
2023/07/30 12:05:51;;;;;;;1.87;1.77;;;26.20;49.90;;;;;;5135575;28;20188;-45
2023/07/30 12:08:27;;;;;;;5.40;1.50;;;26.30;50.30;;;;;;5138099;28;20201;-46
2023/07/30 12:11:02;;;;;;;2.90;2.10;;;26.40;49.40;;;;;;5135291;28;20384;-47
2023/07/30 12:13:34;;;;;;;1.53;1.43;;;26.60;49.80;;;;;;5150257;28;21139;-46
2023/07/30 12:16:05;;;;;;;1.97;1.87;;;26.50;49.90;;;;;;5137144;28;20445;-45
2023/07/30 12:18:35;;;;;;;6.10;1.80;;;26.50;49.30;;;;;;5135823;28;20849;-45
2023/07/30 12:21:07;;;;;;;2.30;1.40;;;26.60;49.20;;;;;;5139262;28;20242;-46
2023/07/30 12:23:38;;;;;;;5.07;2.40;;;26.50;49.10;;;;;;5136667;28;20514;-45
2023/07/30 12:26:09;;;;;;;6.80;1.83;;;26.30;49.10;;;;;;5134321;28;20497;-46
2023/07/30 12:28:39;;;;;;;1.80;1.40;;;26.40;49.70;;;;;;5129214;28;20202;-46
2023/07/30 12:31:10;;;;;;;1.07;1.07;;;26.60;50.20;;;;;;5134590;28;20185;-45
2023/07/30 12:33:41;;;;;;;1.50;1.50;;;26.80;50.10;;;;;;5133597;28;20190;-46
2023/07/30 12:36:11;;;;;;;2.73;2.50;;;27.10;48.60;;;;;;5128105;28;20197;-46
2023/07/30 12:38:42;;;;;;;6.37;2.77;;;27.20;47.80;;;;;;5134847;28;20740;-46
2023/07/30 12:41:13;;;;;;;6.27;2.70;;;27.50;48.40;;;;;;5134003;28;20213;-46
2023/07/30 12:43:43;;;;;;;7.20;2.40;;;27.60;47.60;;;;;;5136066;28;20262;-45
2023/07/30 12:46:14;;;;;;;3.83;2.63;;;27.60;48.10;;;;;;5132953;28;20204;-45
2023/07/30 12:48:45;;;;;;;5.50;2.40;;;27.50;48.40;;;;;;5135005;28;20205;-45
2023/07/30 12:51:15;;;;;;;3.50;2.10;;;27.40;48.70;;;;;;5130608;28;20296;-47
2023/07/30 12:53:46;;;;;;;4.13;2.27;;;27.60;48.90;;;;;;5135284;28;20252;-46
2023/07/30 12:56:16;;;;;;;3.77;2.70;;;27.50;48.50;;;;;;5136937;28;20247;-46
2023/07/30 12:58:47;;;;;;;3.90;2.00;;;27.40;49.20;;;;;;5135021;28;20318;-46
2023/07/30 13:01:18;;;;;;;1.80;1.70;;;26.90;49.30;;;;;;5131904;28;20240;-46
2023/07/30 13:03:50;;;;;;;5.83;2.43;;;26.80;50.40;;;;;;5135389;28;20185;-45
2023/07/30 13:06:21;;;;;;;2.73;2.23;;;26.90;50.10;;;;;;5134217;28;20694;-46